createdAt,value
2023-03-23T15:58:11.994Z,100014.27
2023-03-23T16:02:03.428Z,100010.87
2023-03-23T16:05:37.191Z,100010.59
2023-03-23T16:09:06.439Z,100013.77
2023-03-23T16:12:45.746Z,100012.95
2023-03-23T16:16:34.020Z,100017.26
2023-03-23T16:20:05.256Z,100022.70
2023-03-23T16:23:54.056Z,100031.50
2023-03-23T16:27:21.114Z,100034.70
2023-03-23T16:30:58.115Z,100041.94
2023-03-23T16:34:46.420Z,100045.06
2023-03-23T16:38:27.006Z,100040.14
2023-03-23T16:41:57.366Z,100043.10
2023-03-23T16:45:45.581Z,100052.83
2023-03-23T16:49:14.971Z,100054.48
2023-03-23T16:52:25.851Z,100056.48
2023-03-23T16:55:11.982Z,100057.16
2023-03-23T16:59:00.682Z,100056.10
2023-03-23T17:02:06.812Z,100051.45
2023-03-23T17:04:51.508Z,100060.40
2023-03-23T17:07:49.670Z,100074.56
2023-03-23T17:10:58.787Z,100070.18
2023-03-23T17:14:39.617Z,100056.36
2023-03-23T17:18:18.758Z,100071.13
2023-03-23T17:21:49.017Z,100079.00
2023-03-23T17:25:10.528Z,100081.54
2023-03-23T17:28:37.118Z,100089.34
2023-03-23T17:31:56.259Z,100095.14
2023-03-23T17:35:23.769Z,100102.39
2023-03-23T17:38:37.782Z,100090.91
2023-03-23T17:41:32.110Z,100088.95
2023-03-23T17:44:14.652Z,100082.69
2023-03-23T17:47:54.909Z,100079.23
2023-03-23T17:51:22.985Z,100085.78
2023-03-23T17:55:03.360Z,100096.31
2023-03-23T17:58:04.454Z,100110.99
2023-03-23T18:00:57.115Z,100108.73
2023-03-23T18:03:33.235Z,100107.73
2023-03-23T18:06:10.641Z,100110.61
2023-03-23T18:09:12.002Z,100109.98
2023-03-23T18:11:45.098Z,100110.81
2023-03-23T18:14:23.709Z,100115.79
2023-03-23T18:17:00.945Z,100116.31
2023-03-23T18:20:08.062Z,100120.98
2023-03-23T18:23:08.989Z,100119.23
2023-03-23T18:26:23.065Z,100116.70
2023-03-23T18:29:26.231Z,100123.48
2023-03-23T18:32:11.990Z,100119.33
2023-03-23T18:34:58.429Z,100118.16
2023-03-23T18:37:53.536Z,100129.56
2023-03-23T18:41:17.325Z,100137.10
2023-03-23T18:44:36.792Z,100136.04
2023-03-23T18:47:48.021Z,100131.30
2023-03-23T18:51:31.542Z,100133.11
2023-03-23T18:54:18.972Z,100132.23
2023-03-23T18:57:48.757Z,100116.27
2023-03-23T19:01:18.256Z,100118.55
2023-03-23T19:04:44.388Z,100113.05
2023-03-23T19:08:17.519Z,100102.60
2023-03-23T19:11:23.645Z,100116.06
2023-03-23T19:14:20.002Z,100119.27
2023-03-23T19:16:56.993Z,100114.48
2023-03-23T19:19:47.117Z,100125.08
2023-03-23T19:22:24.311Z,100123.17
2023-03-23T19:25:16.078Z,100113.16
2023-03-23T19:30:36.028Z,100110.61
2023-03-23T19:33:21.530Z,100117.06
2023-03-23T19:36:26.609Z,100120.58
2023-03-23T19:39:11.996Z,100122.97
2023-03-23T19:41:58.163Z,100129.17
2023-03-23T19:44:35.547Z,100134.19
2023-03-23T19:47:41.405Z,100138.27
2023-03-23T19:50:30.449Z,100139.51
2023-03-23T19:53:48.739Z,100141.89
2023-03-23T19:56:39.505Z,100154.46
2023-03-23T19:59:55.312Z,100160.02
2023-03-23T20:03:10.140Z,100160.79
2023-03-23T20:06:18.251Z,100162.92
2023-03-23T20:09:48.434Z,100161.16
2023-03-23T20:13:10.844Z,100166.73
2023-03-23T20:16:40.272Z,100167.95
2023-03-23T20:19:37.249Z,100166.24
2023-03-23T20:22:32.220Z,100165.15
2023-03-23T20:26:12.447Z,100167.11
2023-03-23T20:29:36.429Z,100168.25
2023-03-23T20:32:55.817Z,100172.70
2023-03-23T20:36:37.576Z,100177.81
2023-03-23T20:40:18.958Z,100192.45
2023-03-23T20:43:48.990Z,100193.48
2023-03-23T20:47:28.378Z,100198.70
2023-03-23T20:50:26.848Z,100201.27
2023-03-23T20:53:51.011Z,100203.78
2023-03-23T20:57:08.592Z,100202.58
2023-03-23T21:00:34.068Z,100199.65
2023-03-23T21:04:14.073Z,100197.77
2023-03-23T21:07:59.751Z,100198.52
2023-03-23T21:11:48.655Z,100197.79
2023-03-23T21:15:36.826Z,100199.20
2023-03-23T21:19:25.050Z,100202.64
2023-03-23T21:23:12.155Z,100198.48
2023-03-23T21:26:51.032Z,100200.50
2023-03-23T21:30:39.168Z,100201.34
2023-03-23T21:34:20.522Z,100199.88
2023-03-23T21:38:09.283Z,100204.11
2023-03-23T21:41:42.594Z,100199.47
2023-03-23T21:45:32.045Z,100201.55
2023-03-23T21:49:07.066Z,100198.89
2023-03-23T21:52:47.048Z,100194.84
2023-03-23T21:56:34.804Z,100198.65
2023-03-23T22:00:22.707Z,100193.45
2023-03-23T22:03:59.622Z,100196.52
2023-03-23T22:07:21.320Z,100198.04
2023-03-23T22:11:09.945Z,100195.47
2023-03-23T22:14:52.158Z,100196.45
2023-03-23T22:18:38.723Z,100198.90
2023-03-23T22:22:27.774Z,100195.02
2023-03-23T22:26:05.023Z,100193.34
2023-03-23T22:29:52.884Z,100206.55
2023-03-23T22:33:41.034Z,100200.02
2023-03-23T22:37:28.735Z,100203.32
2023-03-23T22:41:09.039Z,100202.27
2023-03-23T22:44:56.701Z,100201.95
2023-03-23T22:48:44.566Z,100196.56
2023-03-23T22:52:28.742Z,100191.82
2023-03-23T22:56:16.450Z,100190.55
2023-03-23T23:00:03.714Z,100188.94
2023-03-23T23:03:52.177Z,100189.29
2023-03-23T23:07:40.145Z,100191.00
2023-03-23T23:11:27.799Z,100190.58
2023-03-23T23:15:08.056Z,100189.89
2023-03-23T23:18:54.834Z,100184.69
2023-03-23T23:22:45.026Z,100180.15
2023-03-23T23:27:13.252Z,100177.19
2023-03-23T23:31:41.074Z,100172.11
2023-03-23T23:39:18.242Z,100175.81
2023-03-23T23:43:12.346Z,100177.95
2023-03-23T23:47:25.818Z,100177.17
2023-03-23T23:51:16.800Z,100175.02
2023-03-23T23:55:13.475Z,100170.88
2023-03-23T23:59:02.979Z,100168.41
